sensor_id;sensor_type;location;lat;lon;timestamp;temperature;humidity
62154;DHT22;48140;45.486;9.226;2023-01-29T00:01:08;5.40;81.50
62154;DHT22;48140;45.486;9.226;2023-01-29T00:03:34;5.40;82.40
62154;DHT22;48140;45.486;9.226;2023-01-29T00:06:03;5.40;81.30
62154;DHT22;48140;45.486;9.226;2023-01-29T00:08:35;5.40;80.80
62154;DHT22;48140;45.486;9.226;2023-01-29T00:11:02;5.40;81.10
62154;DHT22;48140;45.486;9.226;2023-01-29T00:13:28;5.30;81.00
62154;DHT22;48140;45.486;9.226;2023-01-29T00:15:55;5.30;80.90
62154;DHT22;48140;45.486;9.226;2023-01-29T00:18:22;5.40;81.00
62154;DHT22;48140;45.486;9.226;2023-01-29T00:20:47;5.20;80.90
62154;DHT22;48140;45.486;9.226;2023-01-29T00:23:13;5.10;81.50
62154;DHT22;48140;45.486;9.226;2023-01-29T00:25:40;5.10;81.30
62154;DHT22;48140;45.486;9.226;2023-01-29T00:28:06;5.00;81.50
62154;DHT22;48140;45.486;9.226;2023-01-29T00:30:31;4.90;82.00
62154;DHT22;48140;45.486;9.226;2023-01-29T00:32:57;4.90;82.30
62154;DHT22;48140;45.486;9.226;2023-01-29T00:35:23;4.80;82.50
62154;DHT22;48140;45.486;9.226;2023-01-29T00:37:48;4.80;83.00
62154;DHT22;48140;45.486;9.226;2023-01-29T00:40:14;4.70;83.20
62154;DHT22;48140;45.486;9.226;2023-01-29T00:42:40;4.70;83.80
62154;DHT22;48140;45.486;9.226;2023-01-29T00:45:24;4.60;84.40
62154;DHT22;48140;45.486;9.226;2023-01-29T00:47:50;4.50;84.60
62154;DHT22;48140;45.486;9.226;2023-01-29T00:50:15;4.50;84.70
62154;DHT22;48140;45.486;9.226;2023-01-29T00:52:41;4.40;85.00
62154;DHT22;48140;45.486;9.226;2023-01-29T00:55:08;4.40;85.20
62154;DHT22;48140;45.486;9.226;2023-01-29T00:57:35;4.40;85.80
62154;DHT22;48140;45.486;9.226;2023-01-29T01:00:02;4.40;85.50
62154;DHT22;48140;45.486;9.226;2023-01-29T01:02:28;4.40;85.30
62154;DHT22;48140;45.486;9.226;2023-01-29T01:05:13;4.30;85.70
62154;DHT22;48140;45.486;9.226;2023-01-29T01:07:44;4.30;85.60
62154;DHT22;48140;45.486;9.226;2023-01-29T01:10:19;4.30;85.90
62154;DHT22;48140;45.486;9.226;2023-01-29T01:12:45;4.20;85.50
62154;DHT22;48140;45.486;9.226;2023-01-29T01:15:11;4.20;85.70
62154;DHT22;48140;45.486;9.226;2023-01-29T01:17:36;4.20;85.60
62154;DHT22;48140;45.486;9.226;2023-01-29T01:20:03;4.20;85.70
62154;DHT22;48140;45.486;9.226;2023-01-29T01:22:29;4.20;85.80
62154;DHT22;48140;45.486;9.226;2023-01-29T01:24:56;4.20;86.00
62154;DHT22;48140;45.486;9.226;2023-01-29T01:27:22;4.10;86.20
62154;DHT22;48140;45.486;9.226;2023-01-29T01:29:47;4.10;86.60
62154;DHT22;48140;45.486;9.226;2023-01-29T01:32:13;4.50;86.10
62154;DHT22;48140;45.486;9.226;2023-01-29T01:34:40;4.10;86.70
62154;DHT22;48140;45.486;9.226;2023-01-29T01:37:05;4.10;86.80
62154;DHT22;48140;45.486;9.226;2023-01-29T01:39:31;4.10;86.80
62154;DHT22;48140;45.486;9.226;2023-01-29T01:41:57;4.10;86.60
62154;DHT22;48140;45.486;9.226;2023-01-29T01:44:55;4.10;86.90
62154;DHT22;48140;45.486;9.226;2023-01-29T01:47:28;4.10;87.10
62154;DHT22;48140;45.486;9.226;2023-01-29T01:50:00;4.10;86.80
62154;DHT22;48140;45.486;9.226;2023-01-29T01:52:28;4.20;86.90
62154;DHT22;48140;45.486;9.226;2023-01-29T01:54:56;4.10;86.10
62154;DHT22;48140;45.486;9.226;2023-01-29T01:57:23;4.20;86.10
62154;DHT22;48140;45.486;9.226;2023-01-29T02:00:09;4.20;86.40
62154;DHT22;48140;45.486;9.226;2023-01-29T02:02:38;4.10;86.10
62154;DHT22;48140;45.486;9.226;2023-01-29T02:05:24;4.10;86.60
62154;DHT22;48140;45.486;9.226;2023-01-29T02:08:08;4.10;86.60
62154;DHT22;48140;45.486;9.226;2023-01-29T02:10:54;4.00;86.60
62154;DHT22;48140;45.486;9.226;2023-01-29T02:13:20;4.00;86.40
62154;DHT22;48140;45.486;9.226;2023-01-29T02:15:46;4.00;86.70
62154;DHT22;48140;45.486;9.226;2023-01-29T02:18:18;4.00;86.70
62154;DHT22;48140;45.486;9.226;2023-01-29T02:21:13;3.90;86.90
62154;DHT22;48140;45.486;9.226;2023-01-29T02:24:08;3.90;87.00
62154;DHT22;48140;45.486;9.226;2023-01-29T02:27:01;3.90;87.00
62154;DHT22;48140;45.486;9.226;2023-01-29T02:32:52;3.90;87.00
62154;DHT22;48140;45.486;9.226;2023-01-29T02:35:45;3.90;87.00
62154;DHT22;48140;45.486;9.226;2023-01-29T02:41:00;3.90;87.60
62154;DHT22;48140;45.486;9.226;2023-01-29T02:43:47;3.90;88.40
62154;DHT22;48140;45.486;9.226;2023-01-29T02:51:37;3.90;86.90
62154;DHT22;48140;45.486;9.226;2023-01-29T02:54:20;3.90;87.10
62154;DHT22;48140;45.486;9.226;2023-01-29T02:56:51;3.90;86.80
62154;DHT22;48140;45.486;9.226;2023-01-29T02:59:22;3.90;86.80
62154;DHT22;48140;45.486;9.226;2023-01-29T03:01:56;3.90;87.10
62154;DHT22;48140;45.486;9.226;2023-01-29T03:04:31;3.90;86.90
62154;DHT22;48140;45.486;9.226;2023-01-29T03:07:02;3.90;86.40
62154;DHT22;48140;45.486;9.226;2023-01-29T03:09:34;3.90;86.30
62154;DHT22;48140;45.486;9.226;2023-01-29T03:12:09;3.80;86.00
62154;DHT22;48140;45.486;9.226;2023-01-29T03:14:54;3.80;86.70
62154;DHT22;48140;45.486;9.226;2023-01-29T03:17:57;3.90;86.70
62154;DHT22;48140;45.486;9.226;2023-01-29T03:20:29;3.80;86.50
62154;DHT22;48140;45.486;9.226;2023-01-29T03:23:04;3.80;86.50
62154;DHT22;48140;45.486;9.226;2023-01-29T03:25:34;3.80;86.10
62154;DHT22;48140;45.486;9.226;2023-01-29T03:28:20;3.80;86.50
62154;DHT22;48140;45.486;9.226;2023-01-29T03:31:08;3.80;87.00
62154;DHT22;48140;45.486;9.226;2023-01-29T03:36:51;3.80;86.80
62154;DHT22;48140;45.486;9.226;2023-01-29T03:39:20;3.80;87.10
62154;DHT22;48140;45.486;9.226;2023-01-29T03:47:13;3.80;87.80
62154;DHT22;48140;45.486;9.226;2023-01-29T03:49:58;3.80;88.20
62154;DHT22;48140;45.486;9.226;2023-01-29T03:55:14;3.80;88.10
62154;DHT22;48140;45.486;9.226;2023-01-29T04:00:55;3.70;88.70
62154;DHT22;48140;45.486;9.226;2023-01-29T04:03:38;3.70;88.20
62154;DHT22;48140;45.486;9.226;2023-01-29T04:06:16;3.70;88.40
62154;DHT22;48140;45.486;9.226;2023-01-29T04:11:21;3.50;88.80
62154;DHT22;48140;45.486;9.226;2023-01-29T04:13:48;3.50;89.00
62154;DHT22;48140;45.486;9.226;2023-01-29T04:16:18;3.40;90.00
62154;DHT22;48140;45.486;9.226;2023-01-29T04:18:46;3.40;89.10
62154;DHT22;48140;45.486;9.226;2023-01-29T04:21:13;3.40;89.40
62154;DHT22;48140;45.486;9.226;2023-01-29T04:23:39;3.40;89.60
62154;DHT22;48140;45.486;9.226;2023-01-29T04:26:18;3.40;89.70
62154;DHT22;48140;45.486;9.226;2023-01-29T04:31:25;3.30;89.70
62154;DHT22;48140;45.486;9.226;2023-01-29T04:34:28;3.30;89.70
62154;DHT22;48140;45.486;9.226;2023-01-29T04:37:16;3.30;89.90
62154;DHT22;48140;45.486;9.226;2023-01-29T04:40:14;3.30;90.10
62154;DHT22;48140;45.486;9.226;2023-01-29T04:42:53;3.30;90.10
62154;DHT22;48140;45.486;9.226;2023-01-29T04:48:28;3.40;89.70
62154;DHT22;48140;45.486;9.226;2023-01-29T04:51:07;3.30;89.70
62154;DHT22;48140;45.486;9.226;2023-01-29T04:53:51;3.40;89.50
62154;DHT22;48140;45.486;9.226;2023-01-29T04:56:47;3.40;89.30
62154;DHT22;48140;45.486;9.226;2023-01-29T04:59:18;3.40;89.50
62154;DHT22;48140;45.486;9.226;2023-01-29T05:01:46;3.40;90.00
62154;DHT22;48140;45.486;9.226;2023-01-29T05:04:14;3.30;90.10
62154;DHT22;48140;45.486;9.226;2023-01-29T05:06:42;3.30;90.10
62154;DHT22;48140;45.486;9.226;2023-01-29T05:09:13;3.30;90.10
62154;DHT22;48140;45.486;9.226;2023-01-29T05:11:41;3.30;90.10
62154;DHT22;48140;45.486;9.226;2023-01-29T05:14:10;3.30;90.30
62154;DHT22;48140;45.486;9.226;2023-01-29T05:16:45;3.20;90.20
62154;DHT22;48140;45.486;9.226;2023-01-29T05:19:13;3.10;90.40
62154;DHT22;48140;45.486;9.226;2023-01-29T05:21:42;3.10;90.50
62154;DHT22;48140;45.486;9.226;2023-01-29T05:24:11;3.10;90.60
62154;DHT22;48140;45.486;9.226;2023-01-29T05:26:38;3.20;90.60
62154;DHT22;48140;45.486;9.226;2023-01-29T05:29:23;3.10;90.50
62154;DHT22;48140;45.486;9.226;2023-01-29T05:31:50;3.00;90.90
62154;DHT22;48140;45.486;9.226;2023-01-29T05:34:15;3.10;91.00
62154;DHT22;48140;45.486;9.226;2023-01-29T05:36:42;3.10;91.10
62154;DHT22;48140;45.486;9.226;2023-01-29T05:39:07;3.10;91.20
62154;DHT22;48140;45.486;9.226;2023-01-29T05:41:33;3.10;91.10
62154;DHT22;48140;45.486;9.226;2023-01-29T05:43:58;3.10;91.00
62154;DHT22;48140;45.486;9.226;2023-01-29T05:46:24;3.10;91.10
62154;DHT22;48140;45.486;9.226;2023-01-29T05:48:51;3.00;91.20
62154;DHT22;48140;45.486;9.226;2023-01-29T05:51:17;3.00;91.40
62154;DHT22;48140;45.486;9.226;2023-01-29T05:53:43;3.00;91.40
62154;DHT22;48140;45.486;9.226;2023-01-29T05:56:09;2.90;91.50
62154;DHT22;48140;45.486;9.226;2023-01-29T05:58:34;3.00;91.40
62154;DHT22;48140;45.486;9.226;2023-01-29T06:01:15;2.90;91.40
62154;DHT22;48140;45.486;9.226;2023-01-29T06:03:41;3.00;91.60
62154;DHT22;48140;45.486;9.226;2023-01-29T06:06:07;2.90;91.70
62154;DHT22;48140;45.486;9.226;2023-01-29T06:08:33;2.90;91.90
62154;DHT22;48140;45.486;9.226;2023-01-29T06:10:59;2.90;91.90
62154;DHT22;48140;45.486;9.226;2023-01-29T06:13:25;2.90;92.00
62154;DHT22;48140;45.486;9.226;2023-01-29T06:15:50;2.90;92.20
62154;DHT22;48140;45.486;9.226;2023-01-29T06:18:16;2.90;91.90
62154;DHT22;48140;45.486;9.226;2023-01-29T06:20:42;2.90;91.80
62154;DHT22;48140;45.486;9.226;2023-01-29T06:23:07;2.90;92.00
62154;DHT22;48140;45.486;9.226;2023-01-29T06:25:33;3.00;92.00
62154;DHT22;48140;45.486;9.226;2023-01-29T06:27:58;2.90;92.40
62154;DHT22;48140;45.486;9.226;2023-01-29T06:30:25;2.90;92.00
62154;DHT22;48140;45.486;9.226;2023-01-29T06:32:58;3.00;91.90
62154;DHT22;48140;45.486;9.226;2023-01-29T06:35:26;3.00;91.80
62154;DHT22;48140;45.486;9.226;2023-01-29T06:37:52;3.00;91.80
62154;DHT22;48140;45.486;9.226;2023-01-29T06:40:18;2.90;91.90
62154;DHT22;48140;45.486;9.226;2023-01-29T06:42:44;2.90;92.20
62154;DHT22;48140;45.486;9.226;2023-01-29T06:45:09;2.90;92.10
62154;DHT22;48140;45.486;9.226;2023-01-29T06:47:35;2.90;92.40
62154;DHT22;48140;45.486;9.226;2023-01-29T06:50:02;2.90;92.40
62154;DHT22;48140;45.486;9.226;2023-01-29T06:52:28;2.80;92.40
62154;DHT22;48140;45.486;9.226;2023-01-29T06:54:54;2.90;92.30
62154;DHT22;48140;45.486;9.226;2023-01-29T06:57:21;2.90;92.20
62154;DHT22;48140;45.486;9.226;2023-01-29T06:59:46;2.90;92.30
62154;DHT22;48140;45.486;9.226;2023-01-29T07:02:12;2.90;92.50
62154;DHT22;48140;45.486;9.226;2023-01-29T07:04:38;2.90;92.40
62154;DHT22;48140;45.486;9.226;2023-01-29T07:07:06;2.90;92.50
62154;DHT22;48140;45.486;9.226;2023-01-29T07:09:37;3.00;92.60
62154;DHT22;48140;45.486;9.226;2023-01-29T07:12:03;3.00;92.60
62154;DHT22;48140;45.486;9.226;2023-01-29T07:14:29;2.70;92.50
62154;DHT22;48140;45.486;9.226;2023-01-29T07:16:54;3.10;92.50
62154;DHT22;48140;45.486;9.226;2023-01-29T07:19:20;3.20;92.20
62154;DHT22;48140;45.486;9.226;2023-01-29T07:21:45;3.20;91.90
62154;DHT22;48140;45.486;9.226;2023-01-29T07:24:11;3.20;92.00
62154;DHT22;48140;45.486;9.226;2023-01-29T07:26:37;3.30;92.00
62154;DHT22;48140;45.486;9.226;2023-01-29T07:29:04;3.30;92.00
62154;DHT22;48140;45.486;9.226;2023-01-29T07:31:29;3.40;91.80
62154;DHT22;48140;45.486;9.226;2023-01-29T07:33:55;3.50;91.80
62154;DHT22;48140;45.486;9.226;2023-01-29T07:36:20;3.50;91.70
62154;DHT22;48140;45.486;9.226;2023-01-29T07:38:49;3.60;91.60
62154;DHT22;48140;45.486;9.226;2023-01-29T07:41:15;3.60;91.40
62154;DHT22;48140;45.486;9.226;2023-01-29T07:43:43;3.60;91.30
62154;DHT22;48140;45.486;9.226;2023-01-29T07:46:08;3.70;91.40
62154;DHT22;48140;45.486;9.226;2023-01-29T07:48:34;3.70;91.50
62154;DHT22;48140;45.486;9.226;2023-01-29T07:51:00;3.70;91.60
62154;DHT22;48140;45.486;9.226;2023-01-29T07:53:26;3.80;91.40
62154;DHT22;48140;45.486;9.226;2023-01-29T07:55:52;3.90;91.30
62154;DHT22;48140;45.486;9.226;2023-01-29T07:58:18;3.90;91.20
62154;DHT22;48140;45.486;9.226;2023-01-29T08:00:44;4.00;90.90
62154;DHT22;48140;45.486;9.226;2023-01-29T08:03:15;4.10;91.00
62154;DHT22;48140;45.486;9.226;2023-01-29T08:05:42;4.10;92.00
62154;DHT22;48140;45.486;9.226;2023-01-29T08:08:08;4.20;90.80
62154;DHT22;48140;45.486;9.226;2023-01-29T08:10:35;4.40;90.70
62154;DHT22;48140;45.486;9.226;2023-01-29T08:13:02;4.40;90.30
62154;DHT22;48140;45.486;9.226;2023-01-29T08:15:28;4.50;90.70
62154;DHT22;48140;45.486;9.226;2023-01-29T08:17:54;4.60;90.50
62154;DHT22;48140;45.486;9.226;2023-01-29T08:20:21;4.70;90.30
62154;DHT22;48140;45.486;9.226;2023-01-29T08:22:47;4.80;90.40
62154;DHT22;48140;45.486;9.226;2023-01-29T08:25:13;4.90;89.60
62154;DHT22;48140;45.486;9.226;2023-01-29T08:27:39;4.90;89.10
62154;DHT22;48140;45.486;9.226;2023-01-29T08:30:06;5.00;88.80
62154;DHT22;48140;45.486;9.226;2023-01-29T08:32:32;5.00;88.30
62154;DHT22;48140;45.486;9.226;2023-01-29T08:34:57;5.10;88.50
62154;DHT22;48140;45.486;9.226;2023-01-29T08:37:59;5.10;88.20
62154;DHT22;48140;45.486;9.226;2023-01-29T08:40:27;5.20;88.70
62154;DHT22;48140;45.486;9.226;2023-01-29T08:43:00;5.20;87.70
62154;DHT22;48140;45.486;9.226;2023-01-29T08:45:26;5.20;88.30
62154;DHT22;48140;45.486;9.226;2023-01-29T08:47:51;5.30;87.40
62154;DHT22;48140;45.486;9.226;2023-01-29T08:50:17;5.40;87.90
62154;DHT22;48140;45.486;9.226;2023-01-29T08:52:43;5.40;87.40
62154;DHT22;48140;45.486;9.226;2023-01-29T08:55:10;5.50;87.00
62154;DHT22;48140;45.486;9.226;2023-01-29T08:57:37;5.60;86.40
62154;DHT22;48140;45.486;9.226;2023-01-29T09:00:06;5.60;86.30
62154;DHT22;48140;45.486;9.226;2023-01-29T09:02:33;5.70;85.50
62154;DHT22;48140;45.486;9.226;2023-01-29T09:04:59;5.70;86.20
62154;DHT22;48140;45.486;9.226;2023-01-29T09:07:24;5.80;85.90
62154;DHT22;48140;45.486;9.226;2023-01-29T09:09:50;5.90;84.60
62154;DHT22;48140;45.486;9.226;2023-01-29T09:12:16;6.10;84.40
62154;DHT22;48140;45.486;9.226;2023-01-29T09:14:41;6.50;83.00
62154;DHT22;48140;45.486;9.226;2023-01-29T09:17:07;6.90;81.10
62154;DHT22;48140;45.486;9.226;2023-01-29T09:19:33;7.30;79.30
62154;DHT22;48140;45.486;9.226;2023-01-29T09:21:58;8.10;74.30
62154;DHT22;48140;45.486;9.226;2023-01-29T09:24:24;8.40;71.70
62154;DHT22;48140;45.486;9.226;2023-01-29T09:26:49;8.80;69.40
62154;DHT22;48140;45.486;9.226;2023-01-29T09:29:15;9.20;67.40
62154;DHT22;48140;45.486;9.226;2023-01-29T09:31:41;9.50;65.10
62154;DHT22;48140;45.486;9.226;2023-01-29T09:34:06;9.90;63.50
62154;DHT22;48140;45.486;9.226;2023-01-29T09:36:32;10.30;61.30
62154;DHT22;48140;45.486;9.226;2023-01-29T09:38:57;10.90;55.70
62154;DHT22;48140;45.486;9.226;2023-01-29T09:44:32;11.20;55.30
62154;DHT22;48140;45.486;9.226;2023-01-29T09:47:09;11.40;53.30
62154;DHT22;48140;45.486;9.226;2023-01-29T09:49:40;11.90;52.30
62154;DHT22;48140;45.486;9.226;2023-01-29T09:52:23;12.10;49.10
62154;DHT22;48140;45.486;9.226;2023-01-29T09:54:58;12.50;48.60
62154;DHT22;48140;45.486;9.226;2023-01-29T09:57:48;12.90;46.10
62154;DHT22;48140;45.486;9.226;2023-01-29T10:00:27;13.10;45.00
62154;DHT22;48140;45.486;9.226;2023-01-29T10:06:18;12.90;42.60
62154;DHT22;48140;45.486;9.226;2023-01-29T10:11:45;13.10;42.20
62154;DHT22;48140;45.486;9.226;2023-01-29T10:14:21;13.20;41.10
62154;DHT22;48140;45.486;9.226;2023-01-29T10:25:41;13.90;39.90
62154;DHT22;48140;45.486;9.226;2023-01-29T10:28:28;14.10;37.90
62154;DHT22;48140;45.486;9.226;2023-01-29T10:31:12;14.10;38.30
62154;DHT22;48140;45.486;9.226;2023-01-29T10:33:41;13.60;39.40
62154;DHT22;48140;45.486;9.226;2023-01-29T10:36:16;13.70;38.50
62154;DHT22;48140;45.486;9.226;2023-01-29T10:38:48;13.30;39.30
62154;DHT22;48140;45.486;9.226;2023-01-29T10:41:39;13.20;39.90
62154;DHT22;48140;45.486;9.226;2023-01-29T10:44:44;13.60;37.90
62154;DHT22;48140;45.486;9.226;2023-01-29T10:47:31;14.20;38.30
62154;DHT22;48140;45.486;9.226;2023-01-29T10:50:19;14.30;37.90
62154;DHT22;48140;45.486;9.226;2023-01-29T10:52:52;14.60;37.50
62154;DHT22;48140;45.486;9.226;2023-01-29T10:58:02;15.10;36.40
62154;DHT22;48140;45.486;9.226;2023-01-29T11:00:38;15.10;35.10
62154;DHT22;48140;45.486;9.226;2023-01-29T11:03:18;15.40;35.80
62154;DHT22;48140;45.486;9.226;2023-01-29T11:08:50;15.40;36.90
62154;DHT22;48140;45.486;9.226;2023-01-29T11:11:18;15.70;35.50
62154;DHT22;48140;45.486;9.226;2023-01-29T11:16:22;15.90;33.30
62154;DHT22;48140;45.486;9.226;2023-01-29T11:18:58;15.20;34.90
62154;DHT22;48140;45.486;9.226;2023-01-29T11:21:26;14.90;34.20
62154;DHT22;48140;45.486;9.226;2023-01-29T11:24:10;14.40;36.50
62154;DHT22;48140;45.486;9.226;2023-01-29T11:26:39;15.20;36.20
62154;DHT22;48140;45.486;9.226;2023-01-29T11:31:56;15.70;34.00
62154;DHT22;48140;45.486;9.226;2023-01-29T11:34:23;15.50;33.50
62154;DHT22;48140;45.486;9.226;2023-01-29T11:37:00;15.90;32.40
62154;DHT22;48140;45.486;9.226;2023-01-29T11:39:28;16.50;31.90
62154;DHT22;48140;45.486;9.226;2023-01-29T11:41:58;16.90;31.10
62154;DHT22;48140;45.486;9.226;2023-01-29T11:44:40;16.40;32.60
62154;DHT22;48140;45.486;9.226;2023-01-29T11:49:54;16.50;31.50
62154;DHT22;48140;45.486;9.226;2023-01-29T11:52:26;16.40;31.70
62154;DHT22;48140;45.486;9.226;2023-01-29T11:55:05;16.40;31.60
62154;DHT22;48140;45.486;9.226;2023-01-29T11:57:37;16.60;30.50
62154;DHT22;48140;45.486;9.226;2023-01-29T12:00:19;16.30;31.00
62154;DHT22;48140;45.486;9.226;2023-01-29T12:03:33;16.30;31.80
62154;DHT22;48140;45.486;9.226;2023-01-29T12:05:34;16.80;31.90
62154;DHT22;48140;45.486;9.226;2023-01-29T12:08:00;17.40;30.00
62154;DHT22;48140;45.486;9.226;2023-01-29T12:10:34;17.50;30.90
62154;DHT22;48140;45.486;9.226;2023-01-29T12:13:26;17.40;30.80
62154;DHT22;48140;45.486;9.226;2023-01-29T12:16:09;17.20;29.70
62154;DHT22;48140;45.486;9.226;2023-01-29T12:19:14;17.10;30.40
62154;DHT22;48140;45.486;9.226;2023-01-29T12:22:09;17.10;29.70
62154;DHT22;48140;45.486;9.226;2023-01-29T12:24:48;16.60;30.20
62154;DHT22;48140;45.486;9.226;2023-01-29T12:27:26;17.00;30.30
62154;DHT22;48140;45.486;9.226;2023-01-29T12:30:15;17.00;30.70
62154;DHT22;48140;45.486;9.226;2023-01-29T12:35:35;17.70;29.10
62154;DHT22;48140;45.486;9.226;2023-01-29T12:40:55;17.70;29.20
62154;DHT22;48140;45.486;9.226;2023-01-29T12:43:34;17.50;29.00
62154;DHT22;48140;45.486;9.226;2023-01-29T12:46:04;17.60;30.20
62154;DHT22;48140;45.486;9.226;2023-01-29T12:48:33;17.40;29.30
62154;DHT22;48140;45.486;9.226;2023-01-29T12:51:13;17.50;29.20
62154;DHT22;48140;45.486;9.226;2023-01-29T12:53:49;17.30;29.50
62154;DHT22;48140;45.486;9.226;2023-01-29T12:56:47;17.50;29.30
62154;DHT22;48140;45.486;9.226;2023-01-29T13:01:52;17.20;29.70
62154;DHT22;48140;45.486;9.226;2023-01-29T13:04:34;17.70;29.60
62154;DHT22;48140;45.486;9.226;2023-01-29T13:07:24;18.00;29.10
62154;DHT22;48140;45.486;9.226;2023-01-29T13:09:56;18.30;27.80
62154;DHT22;48140;45.486;9.226;2023-01-29T13:12:25;17.80;27.70
62154;DHT22;48140;45.486;9.226;2023-01-29T13:14:55;17.20;28.30
62154;DHT22;48140;45.486;9.226;2023-01-29T13:17:35;16.70;29.20
62154;DHT22;48140;45.486;9.226;2023-01-29T13:20:21;16.90;29.40
62154;DHT22;48140;45.486;9.226;2023-01-29T13:22:49;17.50;28.70
62154;DHT22;48140;45.486;9.226;2023-01-29T13:25:18;18.50;27.20
62154;DHT22;48140;45.486;9.226;2023-01-29T13:27:45;19.00;26.70
62154;DHT22;48140;45.486;9.226;2023-01-29T13:30:32;18.70;27.00
62154;DHT22;48140;45.486;9.226;2023-01-29T13:33:02;18.30;27.80
62154;DHT22;48140;45.486;9.226;2023-01-29T13:35:41;18.10;28.50
62154;DHT22;48140;45.486;9.226;2023-01-29T13:38:24;17.80;28.70
62154;DHT22;48140;45.486;9.226;2023-01-29T13:41:00;18.70;27.40
62154;DHT22;48140;45.486;9.226;2023-01-29T13:43:26;19.00;26.60
62154;DHT22;48140;45.486;9.226;2023-01-29T13:45:55;18.40;27.10
62154;DHT22;48140;45.486;9.226;2023-01-29T13:48:22;18.70;27.10
62154;DHT22;48140;45.486;9.226;2023-01-29T13:50:50;18.40;27.70
62154;DHT22;48140;45.486;9.226;2023-01-29T13:53:26;18.40;27.70
62154;DHT22;48140;45.486;9.226;2023-01-29T13:55:52;17.70;28.50
62154;DHT22;48140;45.486;9.226;2023-01-29T14:00:57;18.50;27.70
62154;DHT22;48140;45.486;9.226;2023-01-29T14:05:59;19.30;26.70
62154;DHT22;48140;45.486;9.226;2023-01-29T14:08:38;19.60;26.40
62154;DHT22;48140;45.486;9.226;2023-01-29T14:11:26;19.60;26.20
62154;DHT22;48140;45.486;9.226;2023-01-29T14:13:53;19.60;26.10
62154;DHT22;48140;45.486;9.226;2023-01-29T14:29:02;18.10;28.30
62154;DHT22;48140;45.486;9.226;2023-01-29T14:34:20;17.10;29.20
62154;DHT22;48140;45.486;9.226;2023-01-29T14:36:47;17.40;29.30
62154;DHT22;48140;45.486;9.226;2023-01-29T14:39:28;17.70;29.10
62154;DHT22;48140;45.486;9.226;2023-01-29T14:41:56;17.90;28.50
62154;DHT22;48140;45.486;9.226;2023-01-29T14:49:59;17.60;29.40
62154;DHT22;48140;45.486;9.226;2023-01-29T14:52:34;17.30;29.60
62154;DHT22;48140;45.486;9.226;2023-01-29T14:55:05;17.40;29.70
62154;DHT22;48140;45.486;9.226;2023-01-29T14:57:32;17.20;30.10
62154;DHT22;48140;45.486;9.226;2023-01-29T15:00:02;17.80;29.30
62154;DHT22;48140;45.486;9.226;2023-01-29T15:02:50;17.50;29.80
62154;DHT22;48140;45.486;9.226;2023-01-29T15:05:19;16.70;30.10
62154;DHT22;48140;45.486;9.226;2023-01-29T15:07:52;16.70;30.50
62154;DHT22;48140;45.486;9.226;2023-01-29T15:10:24;16.70;31.60
62154;DHT22;48140;45.486;9.226;2023-01-29T15:13:01;16.60;30.20
62154;DHT22;48140;45.486;9.226;2023-01-29T15:20:37;16.60;30.00
62154;DHT22;48140;45.486;9.226;2023-01-29T15:23:26;15.80;31.10
62154;DHT22;48140;45.486;9.226;2023-01-29T15:25:55;15.80;31.40
62154;DHT22;48140;45.486;9.226;2023-01-29T15:28:21;15.50;31.50
62154;DHT22;48140;45.486;9.226;2023-01-29T15:30:53;15.40;31.70
62154;DHT22;48140;45.486;9.226;2023-01-29T15:33:19;15.20;32.40
62154;DHT22;48140;45.486;9.226;2023-01-29T15:35:46;15.00;32.50
62154;DHT22;48140;45.486;9.226;2023-01-29T15:38:17;14.50;33.60
62154;DHT22;48140;45.486;9.226;2023-01-29T15:41:20;14.40;33.60
62154;DHT22;48140;45.486;9.226;2023-01-29T15:43:51;13.60;34.90
62154;DHT22;48140;45.486;9.226;2023-01-29T15:46:26;13.50;35.80
62154;DHT22;48140;45.486;9.226;2023-01-29T15:48:54;13.60;35.80
62154;DHT22;48140;45.486;9.226;2023-01-29T15:51:22;13.20;36.60
62154;DHT22;48140;45.486;9.226;2023-01-29T15:56:32;11.70;40.00
62154;DHT22;48140;45.486;9.226;2023-01-29T15:59:02;11.40;41.50
62154;DHT22;48140;45.486;9.226;2023-01-29T16:01:28;10.90;43.20
62154;DHT22;48140;45.486;9.226;2023-01-29T16:03:57;10.70;44.10
62154;DHT22;48140;45.486;9.226;2023-01-29T16:06:25;10.50;44.70
62154;DHT22;48140;45.486;9.226;2023-01-29T16:08:53;10.20;46.00
62154;DHT22;48140;45.486;9.226;2023-01-29T16:11:20;10.00;46.70
62154;DHT22;48140;45.486;9.226;2023-01-29T16:13:48;9.70;47.50
62154;DHT22;48140;45.486;9.226;2023-01-29T16:18:42;9.30;49.80
62154;DHT22;48140;45.486;9.226;2023-01-29T16:24:03;9.00;50.80
62154;DHT22;48140;45.486;9.226;2023-01-29T16:26:35;8.50;52.60
62154;DHT22;48140;45.486;9.226;2023-01-29T16:29:10;8.50;53.40
62154;DHT22;48140;45.486;9.226;2023-01-29T16:31:37;8.50;54.10
62154;DHT22;48140;45.486;9.226;2023-01-29T16:34:18;8.30;54.50
62154;DHT22;48140;45.486;9.226;2023-01-29T16:36:47;8.20;56.40
62154;DHT22;48140;45.486;9.226;2023-01-29T16:39:18;8.20;57.60
62154;DHT22;48140;45.486;9.226;2023-01-29T16:44:37;8.20;58.50
62154;DHT22;48140;45.486;9.226;2023-01-29T16:47:24;8.20;59.30
62154;DHT22;48140;45.486;9.226;2023-01-29T16:49:53;8.10;60.50
62154;DHT22;48140;45.486;9.226;2023-01-29T16:52:28;8.00;66.10
62154;DHT22;48140;45.486;9.226;2023-01-29T16:57:38;7.70;71.10
62154;DHT22;48140;45.486;9.226;2023-01-29T17:00:07;7.70;72.50
62154;DHT22;48140;45.486;9.226;2023-01-29T17:02:39;7.70;72.50
62154;DHT22;48140;45.486;9.226;2023-01-29T17:05:08;7.70;73.20
62154;DHT22;48140;45.486;9.226;2023-01-29T17:07:35;7.60;73.80
62154;DHT22;48140;45.486;9.226;2023-01-29T17:10:04;7.70;74.10
62154;DHT22;48140;45.486;9.226;2023-01-29T17:12:31;7.70;73.90
62154;DHT22;48140;45.486;9.226;2023-01-29T17:14:59;7.60;74.30
62154;DHT22;48140;45.486;9.226;2023-01-29T17:17:31;7.50;75.60
62154;DHT22;48140;45.486;9.226;2023-01-29T17:19:58;7.50;75.70
62154;DHT22;48140;45.486;9.226;2023-01-29T17:22:26;7.50;76.50
62154;DHT22;48140;45.486;9.226;2023-01-29T17:24:52;7.60;76.20
62154;DHT22;48140;45.486;9.226;2023-01-29T17:27:20;7.60;75.80
62154;DHT22;48140;45.486;9.226;2023-01-29T17:29:47;7.50;76.60
62154;DHT22;48140;45.486;9.226;2023-01-29T17:32:13;7.50;76.90
62154;DHT22;48140;45.486;9.226;2023-01-29T17:34:39;7.40;77.80
62154;DHT22;48140;45.486;9.226;2023-01-29T17:37:04;7.40;77.90
62154;DHT22;48140;45.486;9.226;2023-01-29T17:39:31;7.50;78.30
62154;DHT22;48140;45.486;9.226;2023-01-29T17:41:57;7.40;78.30
62154;DHT22;48140;45.486;9.226;2023-01-29T17:44:23;7.30;78.30
62154;DHT22;48140;45.486;9.226;2023-01-29T17:46:52;7.40;78.30
62154;DHT22;48140;45.486;9.226;2023-01-29T17:49:25;7.30;78.70
62154;DHT22;48140;45.486;9.226;2023-01-29T17:51:53;7.30;79.00
62154;DHT22;48140;45.486;9.226;2023-01-29T17:54:19;7.30;79.20
62154;DHT22;48140;45.486;9.226;2023-01-29T17:56:45;7.20;78.90
62154;DHT22;48140;45.486;9.226;2023-01-29T17:59:23;7.20;79.20
62154;DHT22;48140;45.486;9.226;2023-01-29T18:01:49;7.20;79.00
62154;DHT22;48140;45.486;9.226;2023-01-29T18:04:16;7.20;79.00
62154;DHT22;48140;45.486;9.226;2023-01-29T18:06:43;7.20;80.50